KMCO/MCO METAR and TAF weather

Enter ICAO airport designator
Station Type Date Time Source
KMCO METAR 2020/09/22 20:53 UTC NOAA

KMCO 222053Z 06015KT 10SM FEW040 BKN070 BKN250 27/18 A3003 RMK AO2 SLP168 T02720178 56014


Station Type Date Time Source
KMCO Decoded METAR 2020/09/22 20:53 UTC NOAA

ORLANDO INTERNATIONAL AIRPORT , FL, United States (KMCO) 28-25N 81-20W 29M
Sep 22, 2020 - 04:53 PM EDT / 2020.09.22 2053 UTC
Wind: from the ENE (060 degrees) at 17 MPH (15 KT):0
Visibility: 10 mile(s):0
Sky conditions: mostly cloudy
Temperature: 81.0 F (27.2 C)
Dew Point: 64.0 F (17.8 C)
Relative Humidity: 56%
Pressure (altimeter): 30.03 in. Hg (1016 hPa)
Pressure tendency: 0.04 inches (1.4 hPa) lower than three hours ago
ob: KMCO 222053Z 06015KT 10SM FEW040 BKN070 BKN250 27/18 A3003 RMK AO2 SLP168 T02720178 56014
cycle: 21

Station Type Date Time Source
KMCO TAF 2020/09/22 21:03 UTC NOAA

TAF
AMD KMCO 222101Z 2221/2324 05015G20KT P6SM FEW040 BKN070 BKN250
FM222300 04007KT P6SM SCT050 SCT250
FM231400 09009KT P6SM SCT040 SCT060 BKN250

Example: see airport list